createdAt,value
2023-11-07T00:01:29.265Z,90.70
2023-11-07T00:03:57.285Z,90.80
2023-11-07T00:06:25.203Z,90.80
2023-11-07T00:08:52.789Z,90.90
2023-11-07T00:11:20.712Z,90.80
2023-11-07T00:13:51.488Z,90.80
2023-11-07T00:16:18.946Z,90.80
2023-11-07T00:18:48.506Z,90.80
2023-11-07T00:21:16.012Z,90.80
2023-11-07T00:23:43.186Z,90.70
2023-11-07T00:26:10.577Z,90.70
2023-11-07T00:28:39.815Z,90.70
2023-11-07T00:31:07.405Z,90.70
2023-11-07T00:33:34.852Z,90.70
2023-11-07T00:36:02.374Z,90.70
2023-11-07T00:38:30.283Z,90.80
2023-11-07T00:40:57.724Z,91.10
2023-11-07T00:43:24.805Z,90.80
2023-11-07T00:45:51.872Z,90.90
2023-11-07T00:48:19.870Z,90.90
2023-11-07T00:50:46.998Z,91.00
2023-11-07T00:53:14.299Z,91.10
2023-11-07T00:55:41.607Z,91.10
2023-11-07T00:58:09.410Z,91.20
2023-11-07T01:00:37.290Z,91.20
2023-11-07T01:03:04.652Z,91.30
2023-11-07T01:05:32.249Z,91.30
2023-11-07T01:08:00.102Z,91.40
2023-11-07T01:10:27.145Z,91.40
2023-11-07T01:12:54.488Z,91.50
2023-11-07T01:15:21.724Z,91.50
2023-11-07T01:17:49.178Z,91.50
2023-11-07T01:20:17.198Z,91.60
2023-11-07T01:22:45.688Z,91.70
2023-11-07T01:25:12.761Z,91.60
2023-11-07T01:27:39.827Z,91.70
2023-11-07T01:30:08.523Z,91.70
2023-11-07T01:32:38.035Z,91.80
2023-11-07T01:35:06.013Z,91.80
2023-11-07T01:37:33.999Z,91.80
2023-11-07T01:40:01.256Z,91.90
2023-11-07T01:42:28.417Z,92.00
2023-11-07T01:44:55.705Z,92.00
2023-11-07T01:47:27.128Z,92.10
2023-11-07T01:49:54.712Z,92.10
2023-11-07T01:52:22.649Z,92.20
2023-11-07T01:54:54.239Z,92.30
2023-11-07T01:57:22.177Z,92.40
2023-11-07T01:59:50.309Z,92.50
2023-11-07T02:02:19.912Z,92.60
2023-11-07T02:04:50.268Z,92.60
2023-11-07T02:07:19.673Z,92.70
2023-11-07T02:09:47.482Z,92.80
2023-11-07T02:12:14.794Z,92.90
2023-11-07T02:14:42.336Z,92.90
2023-11-07T02:17:09.808Z,93.10
2023-11-07T02:19:36.953Z,93.20
2023-11-07T02:22:11.567Z,93.20
2023-11-07T02:24:39.067Z,93.30
2023-11-07T02:27:06.990Z,93.40
2023-11-07T02:29:34.558Z,93.50
2023-11-07T02:32:01.588Z,93.50
2023-11-07T02:34:28.834Z,93.50
2023-11-07T02:36:55.966Z,93.60
2023-11-07T02:39:23.182Z,93.70
2023-11-07T02:41:50.185Z,93.70
2023-11-07T02:44:17.489Z,93.80
2023-11-07T02:46:47.126Z,93.90
2023-11-07T02:49:15.042Z,94.00
2023-11-07T02:51:42.209Z,94.00
2023-11-07T02:54:09.278Z,94.10
2023-11-07T02:56:36.837Z,94.20
2023-11-07T02:59:05.112Z,94.30
2023-11-07T03:01:32.488Z,94.30
2023-11-07T03:03:59.542Z,94.40
2023-11-07T03:06:26.850Z,94.50
2023-11-07T03:08:54.276Z,94.50
2023-11-07T03:11:22.471Z,94.50
2023-11-07T03:13:49.545Z,94.60
2023-11-07T03:16:16.726Z,94.70
2023-11-07T03:18:43.823Z,94.70
2023-11-07T03:21:12.015Z,94.80
2023-11-07T03:23:39.423Z,94.90
2023-11-07T03:26:06.820Z,94.90
2023-11-07T03:28:34.278Z,94.90
2023-11-07T03:31:01.549Z,95.00
2023-11-07T03:33:28.645Z,95.00
2023-11-07T03:35:58.334Z,95.00
2023-11-07T03:38:25.961Z,95.10
2023-11-07T03:40:53.217Z,95.10
2023-11-07T03:43:20.305Z,95.20
2023-11-07T03:45:47.660Z,95.20
2023-11-07T03:48:15.313Z,95.30
2023-11-07T03:50:42.565Z,95.30
2023-11-07T03:53:09.773Z,95.40
2023-11-07T03:55:36.886Z,95.40
2023-11-07T03:58:04.408Z,95.40
2023-11-07T04:00:31.588Z,95.50
2023-11-07T04:02:58.795Z,95.50
2023-11-07T04:05:25.964Z,95.50
2023-11-07T04:07:52.970Z,95.50
2023-11-07T04:10:20.274Z,95.60
2023-11-07T04:12:47.306Z,95.70
2023-11-07T04:15:14.609Z,95.70
2023-11-07T04:17:42.179Z,95.70
2023-11-07T04:20:13.608Z,95.70
2023-11-07T04:22:41.098Z,95.80
2023-11-07T04:25:08.789Z,95.90
2023-11-07T04:27:39.760Z,95.90
2023-11-07T04:30:08.197Z,95.90
2023-11-07T04:32:36.137Z,96.00
2023-11-07T04:35:07.096Z,96.10
2023-11-07T04:37:35.191Z,96.10
2023-11-07T04:40:03.576Z,96.20
2023-11-07T04:42:30.630Z,96.20
2023-11-07T04:44:57.796Z,96.30
2023-11-07T04:47:25.523Z,96.40
2023-11-07T04:49:52.758Z,96.40
2023-11-07T04:52:20.579Z,96.50
2023-11-07T04:54:48.164Z,96.50
2023-11-07T04:57:15.559Z,96.60
2023-11-07T04:59:42.729Z,96.60
2023-11-07T05:02:09.746Z,96.70
2023-11-07T05:04:36.843Z,96.70
2023-11-07T05:07:04.715Z,96.80
2023-11-07T05:09:31.930Z,96.80
2023-11-07T05:12:00.483Z,96.80
2023-11-07T05:14:28.887Z,96.90
2023-11-07T05:16:56.237Z,97.00
2023-11-07T05:19:23.371Z,97.00
2023-11-07T05:21:50.458Z,97.00
2023-11-07T05:24:17.475Z,97.10
2023-11-07T05:26:45.070Z,97.10
2023-11-07T05:29:16.685Z,97.10
2023-11-07T05:31:43.822Z,97.10
2023-11-07T05:34:10.922Z,97.10
2023-11-07T05:36:38.198Z,97.20
2023-11-07T05:39:05.474Z,97.20
2023-11-07T05:41:32.543Z,97.20
2023-11-07T05:43:59.961Z,97.30
2023-11-07T05:46:28.393Z,97.30
2023-11-07T05:48:55.754Z,97.30
2023-11-07T05:51:24.688Z,97.30
2023-11-07T05:53:51.922Z,97.40
2023-11-07T05:56:19.114Z,97.30
2023-11-07T05:58:49.642Z,97.40
2023-11-07T06:01:17.257Z,97.40
2023-11-07T06:03:44.519Z,97.50
2023-11-07T06:06:11.751Z,97.50
2023-11-07T06:08:38.833Z,97.60
2023-11-07T06:11:06.106Z,97.60
2023-11-07T06:13:33.222Z,97.60
2023-11-07T06:16:00.159Z,97.70
2023-11-07T06:18:27.669Z,97.70
2023-11-07T06:20:55.221Z,97.70
2023-11-07T06:23:23.940Z,97.70
2023-11-07T06:25:51.666Z,97.70
2023-11-07T06:28:18.686Z,97.70
2023-11-07T06:30:46.155Z,97.80
2023-11-07T06:33:13.531Z,97.80
2023-11-07T06:35:41.001Z,97.90
2023-11-07T06:38:08.628Z,97.80
2023-11-07T06:40:36.054Z,97.90
2023-11-07T06:43:04.714Z,97.80
2023-11-07T06:45:32.030Z,97.90
2023-11-07T06:47:59.655Z,97.90
2023-11-07T06:50:27.496Z,97.90
2023-11-07T06:52:55.276Z,97.90
2023-11-07T06:55:26.616Z,98.30
2023-11-07T06:57:56.783Z,97.90
2023-11-07T07:00:26.757Z,98.00
2023-11-07T07:02:58.711Z,98.00
2023-11-07T07:05:27.215Z,98.00
2023-11-07T07:07:55.758Z,98.00
2023-11-07T07:10:24.372Z,98.00
2023-11-07T07:12:52.230Z,98.00
2023-11-07T07:15:19.437Z,98.10
2023-11-07T07:17:46.828Z,98.20
2023-11-07T07:20:14.283Z,98.40
2023-11-07T07:22:48.371Z,98.50
2023-11-07T07:25:21.826Z,98.50
2023-11-07T07:27:49.780Z,98.60
2023-11-07T07:30:27.902Z,98.40
2023-11-07T07:32:55.647Z,98.30
2023-11-07T07:35:23.301Z,97.60
2023-11-07T07:37:55.006Z,97.00
2023-11-07T07:40:30.513Z,96.60
2023-11-07T07:43:10.786Z,96.10
2023-11-07T07:45:44.397Z,95.80
2023-11-07T07:48:13.044Z,95.40
2023-11-07T07:50:44.411Z,94.60
2023-11-07T07:53:16.735Z,94.10
2023-11-07T07:55:45.559Z,93.70
2023-11-07T07:58:20.687Z,93.10
2023-11-07T08:00:54.158Z,92.80
2023-11-07T08:03:24.237Z,92.10
2023-11-07T08:05:54.129Z,91.50
2023-11-07T08:08:22.741Z,91.20
2023-11-07T08:10:50.704Z,90.90
2023-11-07T08:13:20.200Z,90.70
2023-11-07T08:15:51.854Z,89.60
2023-11-07T08:18:20.351Z,88.50
2023-11-07T08:20:48.737Z,87.40
2023-11-07T08:23:17.030Z,86.70
2023-11-07T08:25:44.689Z,86.00
2023-11-07T08:28:12.606Z,84.50
2023-11-07T08:30:45.858Z,83.60
2023-11-07T08:33:14.106Z,82.80
2023-11-07T08:35:42.410Z,82.50
2023-11-07T08:38:10.041Z,81.10
2023-11-07T08:40:38.057Z,79.90
2023-11-07T08:43:06.626Z,79.00
2023-11-07T08:45:34.367Z,77.30
2023-11-07T08:48:02.017Z,76.10
2023-11-07T08:50:29.719Z,75.50
2023-11-07T08:52:59.033Z,74.50
2023-11-07T08:55:27.074Z,73.10
2023-11-07T08:57:55.040Z,72.00
2023-11-07T09:00:28.284Z,71.40
2023-11-07T09:02:55.787Z,70.10
2023-11-07T09:05:23.951Z,69.60
2023-11-07T09:07:51.529Z,68.80
2023-11-07T09:10:21.122Z,67.60
2023-11-07T09:12:48.363Z,67.60
2023-11-07T09:15:15.841Z,67.60
2023-11-07T09:17:44.394Z,66.90
2023-11-07T09:20:16.437Z,67.20
2023-11-07T09:22:44.644Z,65.70
2023-11-07T09:25:13.393Z,64.00
2023-11-07T09:27:40.885Z,63.00
2023-11-07T09:30:13.786Z,63.00
2023-11-07T09:32:45.683Z,63.20
2023-11-07T09:35:13.042Z,63.20
2023-11-07T09:37:43.046Z,62.60
2023-11-07T09:40:14.532Z,61.50
2023-11-07T09:42:42.735Z,60.50
2023-11-07T09:45:16.637Z,60.50
2023-11-07T09:47:51.146Z,60.40
2023-11-07T09:50:22.609Z,60.60
2023-11-07T09:52:52.855Z,61.00
2023-11-07T09:55:20.210Z,61.80
2023-11-07T09:58:12.910Z,62.20
2023-11-07T10:00:45.475Z,62.70
2023-11-07T10:03:17.403Z,63.50
2023-11-07T10:05:49.065Z,63.70
2023-11-07T10:08:17.575Z,64.40
2023-11-07T10:10:45.198Z,65.00
2023-11-07T10:13:13.866Z,65.40
2023-11-07T10:15:41.832Z,65.90
2023-11-07T10:18:12.494Z,66.60
2023-11-07T10:20:56.282Z,66.80
2023-11-07T10:23:23.699Z,66.20
2023-11-07T10:25:51.690Z,66.80
2023-11-07T10:28:24.407Z,66.80
2023-11-07T10:30:52.015Z,66.50
2023-11-07T10:33:30.103Z,66.30
2023-11-07T10:36:01.564Z,66.50
2023-11-07T10:38:30.714Z,66.20
2023-11-07T10:40:59.745Z,66.50
2023-11-07T10:43:40.477Z,66.90
2023-11-07T10:46:11.426Z,65.40
2023-11-07T10:48:41.438Z,64.10
2023-11-07T10:51:12.702Z,62.60
2023-11-07T10:53:45.051Z,61.60
2023-11-07T10:56:15.267Z,61.00
2023-11-07T10:58:52.080Z,59.80
2023-11-07T11:01:23.348Z,58.80
2023-11-07T11:03:54.056Z,57.80
2023-11-07T11:06:25.772Z,57.50
2023-11-07T11:09:01.987Z,57.10
2023-11-07T11:11:32.736Z,56.20
2023-11-07T11:14:00.784Z,56.00
2023-11-07T11:16:28.645Z,55.60
2023-11-07T11:19:15.044Z,55.60
2023-11-07T11:22:02.283Z,55.90
2023-11-07T11:24:53.027Z,56.60
2023-11-07T11:27:24.469Z,56.70
2023-11-07T11:29:51.731Z,57.20
2023-11-07T11:32:33.203Z,57.70
2023-11-07T11:35:29.761Z,58.00
2023-11-07T11:38:14.787Z,58.50
2023-11-07T11:40:59.146Z,58.60
2023-11-07T11:43:29.285Z,59.10
2023-11-07T11:46:01.439Z,59.60
2023-11-07T11:48:53.960Z,59.80
2023-11-07T11:51:37.462Z,60.30
2023-11-07T11:54:13.135Z,60.80
2023-11-07T11:56:52.470Z,61.20
2023-11-07T11:59:22.868Z,61.30
2023-11-07T12:01:50.458Z,61.70
2023-11-07T12:04:36.989Z,61.70
2023-11-07T12:07:10.793Z,61.90
2023-11-07T12:09:51.606Z,62.30
2023-11-07T12:12:20.354Z,62.30
2023-11-07T12:15:04.167Z,62.50
2023-11-07T12:17:47.556Z,62.30
2023-11-07T12:20:18.456Z,62.80
2023-11-07T12:22:50.517Z,63.10
2023-11-07T12:25:24.676Z,63.50
2023-11-07T12:27:58.196Z,63.70
2023-11-07T12:30:25.564Z,63.80
2023-11-07T12:33:09.786Z,64.10
2023-11-07T12:35:39.166Z,64.30
2023-11-07T12:38:10.029Z,65.00
2023-11-07T12:40:39.516Z,65.50
2023-11-07T12:43:10.520Z,65.70
2023-11-07T12:45:39.467Z,65.20
2023-11-07T12:48:12.489Z,63.90
2023-11-07T12:50:47.748Z,62.50
2023-11-07T12:53:19.255Z,61.20
2023-11-07T12:55:56.014Z,60.80
2023-11-07T12:58:34.449Z,59.40
2023-11-07T13:01:05.651Z,58.40
2023-11-07T13:03:34.319Z,57.90
2023-11-07T13:06:14.047Z,57.60
2023-11-07T13:08:45.321Z,56.80
2023-11-07T13:11:16.259Z,56.80
2023-11-07T13:13:45.066Z,56.80
2023-11-07T13:16:12.726Z,56.70
2023-11-07T13:18:49.634Z,56.60
2023-11-07T13:21:21.433Z,56.80
2023-11-07T13:23:49.086Z,57.10
2023-11-07T13:26:16.986Z,57.60
2023-11-07T13:28:45.214Z,58.00
2023-11-07T13:31:14.266Z,58.50
2023-11-07T13:33:46.582Z,59.00
2023-11-07T13:36:16.020Z,59.70
2023-11-07T13:38:44.036Z,60.10
2023-11-07T13:41:11.984Z,60.00
2023-11-07T13:43:39.649Z,59.70
2023-11-07T13:46:06.669Z,59.10
2023-11-07T13:48:35.013Z,58.60
2023-11-07T13:51:03.260Z,58.10
2023-11-07T13:53:31.102Z,57.90
2023-11-07T13:55:58.078Z,57.80
2023-11-07T13:58:25.197Z,58.10
2023-11-07T14:00:52.567Z,58.40
2023-11-07T14:03:21.007Z,59.00
2023-11-07T14:05:48.235Z,59.20
2023-11-07T14:08:17.067Z,59.50
2023-11-07T14:10:45.632Z,59.80
2023-11-07T14:13:12.805Z,60.00
2023-11-07T14:15:39.877Z,60.00
2023-11-07T14:18:15.751Z,59.80
2023-11-07T14:20:56.297Z,59.90
2023-11-07T14:23:23.404Z,60.10
2023-11-07T14:25:50.929Z,60.50
2023-11-07T14:28:18.116Z,60.80
2023-11-07T14:30:45.946Z,61.30
2023-11-07T14:33:19.395Z,61.80
2023-11-07T14:35:47.481Z,62.30
2023-11-07T14:38:17.144Z,62.60
2023-11-07T14:40:46.805Z,62.90
2023-11-07T14:43:17.328Z,63.20
2023-11-07T14:45:46.013Z,63.60
2023-11-07T14:48:15.880Z,63.90
2023-11-07T14:50:44.737Z,64.30
2023-11-07T14:53:12.096Z,64.70
2023-11-07T14:55:39.783Z,65.10
2023-11-07T14:58:08.250Z,65.60
2023-11-07T15:00:41.886Z,65.80
2023-11-07T15:03:11.947Z,66.10
2023-11-07T15:05:41.011Z,66.40
2023-11-07T15:08:08.717Z,66.70
2023-11-07T15:10:36.886Z,67.00
2023-11-07T15:13:06.348Z,67.40
2023-11-07T15:15:34.747Z,67.70
2023-11-07T15:18:03.604Z,67.90
2023-11-07T15:20:32.828Z,68.10
2023-11-07T15:23:02.385Z,68.30
2023-11-07T15:25:34.919Z,68.70
2023-11-07T15:28:03.016Z,68.80
2023-11-07T15:30:30.481Z,68.90
2023-11-07T15:32:58.982Z,69.20
2023-11-07T15:35:30.238Z,69.50
2023-11-07T15:37:57.295Z,69.90
2023-11-07T15:40:24.462Z,70.20
2023-11-07T15:42:51.708Z,70.50
2023-11-07T15:45:19.753Z,70.80
2023-11-07T15:47:48.166Z,71.20
2023-11-07T15:50:18.064Z,71.40
2023-11-07T15:53:04.096Z,71.80
2023-11-07T15:55:39.707Z,72.20
2023-11-07T15:58:07.625Z,72.60
2023-11-07T16:00:35.960Z,72.90
2023-11-07T16:03:05.220Z,73.30
2023-11-07T16:05:36.755Z,73.90
2023-11-07T16:08:08.286Z,74.00
2023-11-07T16:10:36.312Z,74.40
2023-11-07T16:13:04.822Z,74.70
2023-11-07T16:15:32.457Z,74.90
2023-11-07T16:17:59.951Z,75.50
2023-11-07T16:20:28.136Z,75.80
2023-11-07T16:22:57.300Z,76.20
2023-11-07T16:25:25.277Z,76.60
2023-11-07T16:27:54.119Z,77.20
2023-11-07T16:30:21.875Z,77.50
2023-11-07T16:32:50.819Z,78.10
2023-11-07T16:35:19.344Z,78.10
2023-11-07T16:37:46.791Z,78.60
2023-11-07T16:40:16.346Z,79.10
2023-11-07T16:42:43.554Z,79.60
2023-11-07T16:45:13.804Z,80.00
2023-11-07T16:47:43.933Z,80.20
2023-11-07T16:50:14.440Z,80.50
2023-11-07T16:52:42.243Z,81.00
2023-11-07T16:55:18.122Z,81.10
2023-11-07T16:57:48.607Z,81.60
2023-11-07T17:00:19.741Z,81.90
2023-11-07T17:02:47.517Z,82.30
2023-11-07T17:05:16.618Z,82.50
2023-11-07T17:07:45.735Z,83.00
2023-11-07T17:10:13.376Z,83.30
2023-11-07T17:12:40.510Z,83.60
2023-11-07T17:15:09.353Z,84.00
2023-11-07T17:17:37.845Z,84.30
2023-11-07T17:20:07.706Z,84.50
2023-11-07T17:22:38.528Z,84.90
2023-11-07T17:25:06.658Z,85.30
2023-11-07T17:27:34.215Z,85.80
2023-11-07T17:30:01.360Z,86.10
2023-11-07T17:32:29.597Z,86.30
2023-11-07T17:34:59.628Z,86.60
2023-11-07T17:37:30.270Z,86.90
2023-11-07T17:39:57.770Z,87.00
2023-11-07T17:42:25.310Z,87.20
2023-11-07T17:44:52.881Z,87.50
2023-11-07T17:47:21.153Z,87.70
2023-11-07T17:49:48.610Z,87.90
2023-11-07T17:52:15.763Z,87.90
2023-11-07T17:54:43.153Z,88.10
2023-11-07T17:57:10.166Z,88.30
2023-11-07T17:59:38.147Z,88.40
2023-11-07T18:02:05.693Z,88.50
2023-11-07T18:04:33.211Z,88.80
2023-11-07T18:07:00.953Z,89.10
2023-11-07T18:09:29.788Z,89.30
2023-11-07T18:11:58.153Z,89.30
2023-11-07T18:14:28.341Z,89.40
2023-11-07T18:16:57.886Z,89.50
2023-11-07T18:19:25.433Z,89.70
2023-11-07T18:21:52.561Z,89.80
2023-11-07T18:24:19.660Z,89.90
2023-11-07T18:26:49.963Z,90.00
2023-11-07T18:29:17.302Z,90.10
2023-11-07T18:31:45.097Z,90.20
2023-11-07T18:34:20.686Z,90.30
2023-11-07T18:37:05.219Z,90.30
2023-11-07T18:39:34.820Z,90.70
2023-11-07T18:42:04.920Z,90.70
2023-11-07T18:44:35.585Z,90.70
2023-11-07T18:47:03.419Z,90.80
2023-11-07T18:49:33.636Z,91.00
2023-11-07T18:52:01.592Z,91.10
2023-11-07T18:54:29.001Z,91.20
2023-11-07T18:56:57.923Z,91.30
2023-11-07T18:59:33.976Z,91.50
2023-11-07T19:02:08.254Z,91.60
2023-11-07T19:04:37.738Z,91.70
2023-11-07T19:07:06.901Z,91.90
2023-11-07T19:09:34.688Z,92.10
2023-11-07T19:12:04.822Z,92.20
2023-11-07T19:14:31.991Z,92.40
2023-11-07T19:16:59.411Z,92.40
2023-11-07T19:19:28.359Z,92.50
2023-11-07T19:22:02.400Z,92.70
2023-11-07T19:24:29.940Z,92.80
2023-11-07T19:26:57.915Z,92.80
2023-11-07T19:29:25.052Z,92.90
2023-11-07T19:31:54.036Z,92.90
2023-11-07T19:34:23.796Z,93.00
2023-11-07T19:36:51.956Z,93.10
2023-11-07T19:39:22.172Z,93.10
2023-11-07T19:41:49.435Z,93.10
2023-11-07T19:44:16.783Z,93.20
2023-11-07T19:46:44.522Z,93.30
2023-11-07T19:49:11.717Z,93.30
2023-11-07T19:51:41.417Z,93.30
2023-11-07T19:54:12.062Z,93.20
2023-11-07T19:56:41.946Z,93.20
2023-11-07T19:59:11.688Z,93.20
2023-11-07T20:01:39.760Z,93.20
2023-11-07T20:04:07.460Z,93.30
2023-11-07T20:06:35.402Z,93.30
2023-11-07T20:09:02.745Z,93.30
2023-11-07T20:11:30.603Z,93.30
2023-11-07T20:13:58.224Z,93.50
2023-11-07T20:16:25.308Z,93.60
2023-11-07T20:18:53.730Z,93.60
2023-11-07T20:21:21.140Z,93.70
2023-11-07T20:23:48.252Z,93.80
2023-11-07T20:26:15.558Z,93.80
2023-11-07T20:28:42.857Z,93.90
2023-11-07T20:31:09.883Z,94.30
2023-11-07T20:33:44.583Z,94.00
2023-11-07T20:36:16.709Z,94.20
2023-11-07T20:38:43.909Z,94.20
2023-11-07T20:41:15.818Z,94.30
2023-11-07T20:43:42.954Z,94.40
2023-11-07T20:46:18.768Z,94.40
2023-11-07T20:48:54.089Z,94.50
2023-11-07T20:51:21.315Z,94.60
2023-11-07T20:53:48.481Z,94.70
2023-11-07T20:56:15.404Z,94.70
2023-11-07T20:58:42.642Z,94.80
2023-11-07T21:01:09.625Z,94.90
2023-11-07T21:03:36.687Z,95.00
2023-11-07T21:06:03.862Z,95.10
2023-11-07T21:08:30.982Z,95.10
2023-11-07T21:10:58.374Z,95.20
2023-11-07T21:13:26.706Z,95.30
2023-11-07T21:15:53.746Z,95.30
2023-11-07T21:18:20.788Z,95.50
2023-11-07T21:20:47.766Z,95.80
2023-11-07T21:23:14.782Z,95.50
2023-11-07T21:25:41.707Z,95.60
2023-11-07T21:28:10.176Z,95.70
2023-11-07T21:30:37.236Z,95.80
2023-11-07T21:33:05.950Z,95.90
2023-11-07T21:35:33.195Z,95.90
2023-11-07T21:38:00.193Z,96.00
2023-11-07T21:40:27.127Z,96.10
2023-11-07T21:42:54.217Z,96.20
2023-11-07T21:45:21.318Z,96.30
2023-11-07T21:47:48.511Z,96.20
2023-11-07T21:50:15.610Z,96.30
2023-11-07T21:52:42.694Z,96.40
2023-11-07T21:55:09.912Z,96.40
2023-11-07T21:57:37.561Z,96.40
2023-11-07T22:00:05.699Z,96.50
2023-11-07T22:02:40.046Z,96.60
2023-11-07T22:05:08.651Z,96.60
2023-11-07T22:07:35.874Z,96.70
2023-11-07T22:10:05.468Z,96.80
2023-11-07T22:12:32.606Z,96.80
2023-11-07T22:14:59.645Z,96.80
2023-11-07T22:17:26.687Z,96.90
2023-11-07T22:19:53.583Z,96.90
2023-11-07T22:22:20.654Z,96.90
2023-11-07T22:24:47.575Z,97.00
2023-11-07T22:27:14.819Z,97.00
2023-11-07T22:29:42.037Z,97.00
2023-11-07T22:32:09.201Z,97.10
2023-11-07T22:34:36.381Z,97.10
2023-11-07T22:37:03.488Z,97.20
2023-11-07T22:39:30.564Z,97.20
2023-11-07T22:41:57.630Z,97.20
2023-11-07T22:44:25.005Z,97.20
2023-11-07T22:46:52.067Z,97.30
2023-11-07T22:49:21.575Z,97.20
2023-11-07T22:51:51.226Z,97.20
2023-11-07T22:54:18.079Z,97.30
2023-11-07T22:56:45.048Z,97.30
2023-11-07T22:59:12.964Z,97.60
2023-11-07T23:01:41.432Z,97.20
2023-11-07T23:04:08.648Z,97.20
2023-11-07T23:06:35.980Z,97.30
2023-11-07T23:09:03.196Z,97.20
2023-11-07T23:11:30.108Z,97.30
2023-11-07T23:13:58.520Z,97.20
2023-11-07T23:16:25.631Z,97.20
2023-11-07T23:18:53.044Z,97.20
2023-11-07T23:21:20.250Z,97.10
2023-11-07T23:23:47.519Z,97.00
2023-11-07T23:26:14.453Z,97.00
2023-11-07T23:28:41.787Z,97.00
2023-11-07T23:31:08.884Z,96.90
2023-11-07T23:33:36.126Z,96.80
2023-11-07T23:36:03.350Z,96.70
2023-11-07T23:38:31.472Z,96.70
2023-11-07T23:40:59.170Z,96.60
2023-11-07T23:43:27.898Z,96.50
2023-11-07T23:45:55.253Z,96.40
2023-11-07T23:48:22.691Z,96.40
2023-11-07T23:50:49.698Z,96.60
2023-11-07T23:53:17.629Z,96.20
2023-11-07T23:55:45.308Z,96.10
2023-11-07T23:58:12.238Z,96.10
